createdAt,value
2023-11-24T00:04:28.293Z,13.01
2023-11-24T00:09:31.443Z,13.02
2023-11-24T00:14:34.108Z,12.96
2023-11-24T00:19:38.082Z,13.05
2023-11-24T00:24:41.243Z,12.92
2023-11-24T00:29:44.837Z,12.69
2023-11-24T00:34:49.303Z,12.66
2023-11-24T00:39:52.080Z,12.59
2023-11-24T00:44:54.758Z,12.47
2023-11-24T00:49:59.698Z,12.12
2023-11-24T00:55:04.071Z,12.02
2023-11-24T01:00:09.494Z,11.30
2023-11-24T01:05:13.549Z,11.90
2023-11-24T01:10:16.263Z,11.92
2023-11-24T01:15:19.063Z,11.89
2023-11-24T01:20:23.710Z,11.96
2023-11-24T01:25:26.427Z,11.98
2023-11-24T01:30:29.114Z,12.18
2023-11-24T01:35:33.138Z,11.91
2023-11-24T01:40:35.754Z,12.21
2023-11-24T01:45:38.513Z,12.24
2023-11-24T01:50:43.625Z,12.17
2023-11-24T01:55:47.656Z,12.21
2023-11-24T02:00:51.616Z,12.11
2023-11-24T02:05:56.499Z,12.15
2023-11-24T02:10:59.276Z,11.81
2023-11-24T02:16:34.859Z,12.02
2023-11-24T02:21:39.107Z,12.06
2023-11-24T02:26:43.301Z,11.82
2023-11-24T02:31:46.065Z,11.89
2023-11-24T02:36:48.904Z,11.85
2023-11-24T02:41:53.727Z,11.90
2023-11-24T02:46:56.962Z,11.49
2023-11-24T02:52:00.040Z,11.66
2023-11-24T02:57:04.651Z,11.66
2023-11-24T03:02:07.495Z,11.63
2023-11-24T03:07:11.899Z,10.82
2023-11-24T03:12:17.467Z,11.86
2023-11-24T03:17:20.298Z,12.01
2023-11-24T03:22:23.306Z,11.49
2023-11-24T03:27:28.402Z,11.92
2023-11-24T03:32:31.520Z,11.45
2023-11-24T03:37:34.395Z,11.66
2023-11-24T03:42:39.319Z,11.94
2023-11-24T03:47:42.995Z,11.91
2023-11-24T03:52:45.955Z,11.56
2023-11-24T03:57:50.070Z,11.28
2023-11-24T04:02:52.936Z,11.28
2023-11-24T04:07:55.670Z,11.90
2023-11-24T04:12:59.929Z,11.83
2023-11-24T04:18:02.808Z,11.75
2023-11-24T04:23:08.168Z,11.36
2023-11-24T04:28:15.606Z,11.37
2023-11-24T04:33:19.733Z,11.52
2023-11-24T04:38:22.497Z,10.47
2023-11-24T04:43:27.723Z,10.17
2023-11-24T04:48:30.833Z,10.25
2023-11-24T04:53:34.115Z,11.63
2023-11-24T04:58:38.720Z,11.54
2023-11-24T05:03:44.038Z,11.27
2023-11-24T05:08:48.862Z,9.99
2023-11-24T05:13:53.387Z,11.41
2023-11-24T05:18:56.189Z,11.42
2023-11-24T05:23:59.197Z,10.20
2023-11-24T05:29:04.844Z,11.45
2023-11-24T05:34:07.870Z,11.24
2023-11-24T05:39:12.759Z,10.20
2023-11-24T05:44:47.158Z,11.34
2023-11-24T05:49:53.413Z,11.37
2023-11-24T05:54:59.535Z,11.24
2023-11-24T06:00:44.298Z,11.20
2023-11-24T06:05:47.359Z,9.26
2023-11-24T06:10:57.528Z,10.11
2023-11-24T06:16:02.259Z,11.40
2023-11-24T06:21:11.668Z,11.25
2023-11-24T06:26:14.638Z,11.03
2023-11-24T06:31:20.821Z,10.73
2023-11-24T06:36:24.000Z,10.92
2023-11-24T06:41:30.600Z,11.40
2023-11-24T06:46:35.940Z,10.90
2023-11-24T06:51:40.241Z,11.23
2023-11-24T06:56:45.764Z,11.02
2023-11-24T07:01:50.482Z,10.56
2023-11-24T07:06:53.533Z,10.56
2023-11-24T07:11:56.308Z,10.54
2023-11-24T07:17:02.711Z,10.78
2023-11-24T07:22:06.429Z,10.48
2023-11-24T07:27:09.265Z,10.63
2023-11-24T07:32:13.950Z,10.24
2023-11-24T07:37:17.081Z,10.55
2023-11-24T07:42:21.208Z,10.69
2023-11-24T07:47:28.347Z,10.26
2023-11-24T07:52:32.086Z,10.20
2023-11-24T07:57:36.355Z,10.16
2023-11-24T08:02:40.638Z,9.82
2023-11-24T08:07:45.354Z,9.82
2023-11-24T08:12:50.124Z,10.49
2023-11-24T08:17:54.508Z,10.51
2023-11-24T08:23:06.394Z,9.97
2023-11-24T08:28:09.376Z,8.17
2023-11-24T08:33:14.915Z,8.32
2023-11-24T08:38:20.026Z,9.30
2023-11-24T08:43:24.377Z,7.72
2023-11-24T08:48:28.643Z,9.12
2023-11-24T08:53:35.523Z,9.84
2023-11-24T08:58:38.463Z,10.14
2023-11-24T09:03:43.182Z,10.23
2023-11-24T09:08:46.332Z,9.79
2023-11-24T09:13:49.733Z,10.30
2023-11-24T09:18:55.916Z,10.02
2023-11-24T09:24:01.962Z,10.03
2023-11-24T09:29:04.677Z,9.83
2023-11-24T09:34:09.056Z,10.03
2023-11-24T09:39:11.941Z,9.95
2023-11-24T09:44:17.044Z,9.26
2023-11-24T09:49:22.279Z,9.84
2023-11-24T09:54:25.258Z,10.16
2023-11-24T09:59:28.219Z,10.07
2023-11-24T10:04:32.455Z,10.07
2023-11-24T10:09:35.288Z,10.16
2023-11-24T10:14:44.267Z,10.05
2023-11-24T10:19:49.059Z,10.28
2023-11-24T10:24:55.405Z,10.21
2023-11-24T10:29:58.205Z,10.36
2023-11-24T10:35:05.052Z,10.35
2023-11-24T10:40:15.087Z,10.42
2023-11-24T10:45:20.472Z,10.48
2023-11-24T10:50:28.277Z,9.99
2023-11-24T10:55:33.664Z,10.23
2023-11-24T11:00:38.217Z,10.26
2023-11-24T11:05:53.517Z,9.40
2023-11-24T11:11:26.387Z,10.26
2023-11-24T11:16:30.760Z,9.89
2023-11-24T11:21:41.356Z,10.49
2023-11-24T11:26:51.821Z,10.67
2023-11-24T11:31:57.960Z,10.63
2023-11-24T11:37:07.706Z,10.59
2023-11-24T11:42:13.618Z,10.37
2023-11-24T11:47:22.999Z,10.29
2023-11-24T11:52:34.015Z,10.51
2023-11-24T11:57:41.040Z,10.31
2023-11-24T12:02:43.937Z,10.22
2023-11-24T12:08:09.564Z,10.24
2023-11-24T12:13:42.449Z,9.91
2023-11-24T12:18:58.129Z,9.78
2023-11-24T12:24:17.108Z,9.01
2023-11-24T12:29:25.760Z,9.51
2023-11-24T12:35:09.272Z,10.14
2023-11-24T12:40:14.366Z,10.01
2023-11-24T12:45:20.769Z,10.16
2023-11-24T12:50:32.598Z,10.06
2023-11-24T12:55:53.642Z,9.61
2023-11-24T13:00:58.218Z,9.03
2023-11-24T13:12:57.447Z,10.17
2023-11-24T13:18:35.261Z,9.56
2023-11-24T13:23:39.638Z,10.53
2023-11-24T13:28:46.779Z,10.14
2023-11-24T13:33:56.674Z,9.57
2023-11-24T13:39:11.911Z,10.65
2023-11-24T13:44:17.406Z,9.18
2023-11-24T13:49:27.997Z,9.10
2023-11-24T13:54:35.261Z,9.35
2023-11-24T13:59:42.769Z,9.19
2023-11-24T14:04:52.369Z,9.02
2023-11-24T14:10:20.730Z,9.49
2023-11-24T14:15:24.981Z,9.05
2023-11-24T14:20:27.727Z,8.70
2023-11-24T14:25:31.841Z,9.12
2023-11-24T14:30:54.322Z,8.79
2023-11-24T14:35:59.484Z,9.41
2023-11-24T14:41:08.430Z,8.50
2023-11-24T14:46:13.460Z,9.69
2023-11-24T14:51:16.615Z,9.11
2023-11-24T14:56:20.761Z,9.56
2023-11-24T15:01:28.384Z,8.34
2023-11-24T15:06:32.546Z,8.97
2023-11-24T15:11:38.919Z,8.44
2023-11-24T15:16:52.089Z,8.75
2023-11-24T15:21:55.900Z,8.25
2023-11-24T15:26:58.712Z,8.02
2023-11-24T15:32:07.381Z,8.09
2023-11-24T15:37:11.008Z,8.29
2023-11-24T15:42:18.741Z,7.47
2023-11-24T15:47:25.523Z,7.49
2023-11-24T15:52:34.888Z,7.72
2023-11-24T15:57:39.751Z,7.80
2023-11-24T16:02:45.107Z,7.72
2023-11-24T16:07:54.859Z,8.10
2023-11-24T16:13:03.568Z,8.17
2023-11-24T16:18:10.357Z,8.28
2023-11-24T16:23:13.464Z,8.26
2023-11-24T16:28:18.114Z,8.08
2023-11-24T16:33:22.195Z,7.92
2023-11-24T16:38:25.788Z,7.76
2023-11-24T16:43:28.812Z,7.90
2023-11-24T16:48:33.178Z,8.00
2023-11-24T16:53:36.094Z,7.92
2023-11-24T16:58:39.091Z,7.75
2023-11-24T17:03:43.805Z,8.18
2023-11-24T17:08:46.673Z,7.92
2023-11-24T17:13:49.542Z,8.19
2023-11-24T17:18:54.154Z,8.12
2023-11-24T17:23:57.225Z,8.25
2023-11-24T17:29:02.383Z,8.19
2023-11-24T17:34:08.304Z,7.85
2023-11-24T17:39:13.866Z,8.15
2023-11-24T17:44:17.113Z,7.97
2023-11-24T17:49:21.382Z,8.14
2023-11-24T17:54:24.970Z,8.18
2023-11-24T17:59:27.809Z,8.17
2023-11-24T18:04:32.270Z,7.51
2023-11-24T18:09:35.180Z,8.06
2023-11-24T18:14:38.478Z,7.12
2023-11-24T18:19:45.139Z,6.75
2023-11-24T18:24:47.872Z,8.43
2023-11-24T18:29:50.636Z,8.14
2023-11-24T18:34:58.583Z,8.38
2023-11-24T18:40:05.863Z,8.29
2023-11-24T18:45:12.109Z,6.63
2023-11-24T18:50:17.782Z,7.17
2023-11-24T18:55:20.674Z,8.42
2023-11-24T19:00:25.045Z,8.43
2023-11-24T19:05:33.618Z,8.29
2023-11-24T19:10:41.220Z,7.38
2023-11-24T19:15:48.604Z,6.39
2023-11-24T19:21:05.672Z,5.64
2023-11-24T19:26:13.857Z,5.62
2023-11-24T19:31:29.708Z,6.33
2023-11-24T19:42:58.745Z,4.61
2023-11-24T19:48:05.091Z,7.25
2023-11-24T19:53:08.367Z,5.36
2023-11-24T19:58:13.446Z,5.61
2023-11-24T20:03:48.996Z,7.47
2023-11-24T20:08:57.408Z,6.55
2023-11-24T20:14:10.398Z,7.11
2023-11-24T20:19:16.483Z,4.63
2023-11-24T20:25:08.271Z,4.86
2023-11-24T20:30:27.854Z,7.64
2023-11-24T20:35:36.313Z,7.62
2023-11-24T20:40:41.579Z,6.19
2023-11-24T20:45:54.715Z,7.66
2023-11-24T20:50:57.588Z,7.60
2023-11-24T20:56:00.807Z,7.68
2023-11-24T21:01:06.155Z,7.73
2023-11-24T21:06:09.726Z,7.53
2023-11-24T21:11:12.601Z,7.59
2023-11-24T21:16:16.635Z,7.69
2023-11-24T21:21:19.334Z,7.46
2023-11-24T21:26:22.256Z,7.52
2023-11-24T21:31:26.275Z,7.44
2023-11-24T21:36:28.951Z,7.48
2023-11-24T21:41:31.579Z,7.65
2023-11-24T21:46:36.932Z,7.49
2023-11-24T21:51:40.642Z,7.12
2023-11-24T21:56:43.260Z,7.57
2023-11-24T22:01:47.560Z,7.54
2023-11-24T22:06:50.327Z,7.60
2023-11-24T22:11:52.981Z,7.52
2023-11-24T22:16:57.148Z,7.39
2023-11-24T22:22:00.074Z,7.45
2023-11-24T22:27:06.279Z,7.52
2023-11-24T22:32:10.922Z,7.71
2023-11-24T22:37:13.653Z,7.78
2023-11-24T22:42:16.446Z,7.71
2023-11-24T22:47:20.864Z,7.76
2023-11-24T22:52:23.742Z,7.74
2023-11-24T22:57:28.103Z,7.49
2023-11-24T23:02:32.116Z,7.44
2023-11-24T23:07:36.277Z,7.52
2023-11-24T23:12:40.554Z,7.66
2023-11-24T23:17:45.520Z,7.53
2023-11-24T23:22:49.341Z,7.44
2023-11-24T23:27:52.506Z,7.49
2023-11-24T23:33:10.077Z,7.52
2023-11-24T23:38:20.137Z,7.42
2023-11-24T23:43:24.146Z,7.52
2023-11-24T23:48:28.360Z,7.29
2023-11-24T23:53:31.583Z,7.58
2023-11-24T23:58:35.521Z,7.43
